Latest Coastal Weather Observations for Cape Naturaliste

IDW60701

Issued at 11:45 am WST Saturday 25 October 2014 (issued every 10 minutes, with the page automatically refreshed every 10 minutes)

About coastal observations | Map of coastal stations | Coastal observations for WA | Marine services | Other Formats
Station Details ID: 009519 Name: CAPE NATURALISTE Lat: -33.54 Lon: 115.02 Height: 109.0 m
Data from the previous 72 hours. | See also: Recent months at Cape Naturaliste
Date/Time
WST
Temp

°C
Wind Pressure Rain
since 9am
mm
Weather Cloud Vis
km
Sea
Height
m
Swell
Dir
 
Speed
knots
Gust
knots
hPa Trend Height
m
Period
s
Dir
25/11:30am 18.4 W 17 22 1016.4 - 0.0 - - - - - - -
25/11:00am 18.9 WNW 19 25 1016.5 - 0.0 - - - - - - -
25/10:30am 20.8 W 15 20 1016.5 - 0.0 - - - - - - -
25/10:00am 20.1 W 16 20 1016.5 - 0.0 - - - - - - -
25/09:30am 19.3 W 17 21 1016.4 - 0.0 - - - - - - -
25/09:00am 19.9 W 14 18 1016.3 - 0.0 - - - - - - -
25/08:30am 18.5 W 13 19 1016.1 - 0.0 - - - - - - -
25/08:00am 18.3 W 14 17 1015.8 - 0.0 - - - - - - -
25/07:30am 17.3 W 14 20 1015.7 - 0.0 - - - - - - -
25/07:00am 16.7 W 15 19 1015.6 - 0.0 - - - - - - -
25/06:30am 16.0 W 15 20 1015.4 - 0.0 - - - - - - -
25/06:00am 15.8 W 15 20 1015.1 - 0.0 - - - - - - -
25/05:30am 15.6 W 16 20 1014.8 - 0.0 - - - - - - -
25/05:00am 15.7 WSW 15 20 1014.6 - 0.0 - - - - - - -
25/04:30am 15.5 WSW 14 18 1014.4 - 0.0 - - - - - - -
25/04:00am 15.4 WSW 14 17 1014.3 - 0.0 - - - - - - -
25/03:30am 15.1 WSW 13 17 1014.2 - 0.0 - - - - - - -
25/03:00am 15.6 WSW 17 22 1014.1 - 0.0 - - - - - - -
25/02:30am 16.4 WSW 15 18 1014.0 - 0.0 - - - - - - -
25/02:11am 16.8 W 16 22 1013.8 - 0.0 - - - - - - -
25/02:00am 17.1 NNW 9 11 1013.9 - 0.0 - - - - - - -
25/01:30am 16.6 NNW 7 10 1014.0 - 0.0 - - - - - - -
25/01:00am 16.5 NNW 8 10 1014.2 - 0.0 - - - - - - -
25/12:30am 16.6 N 8 9 1014.2 - 0.0 - - - - - - -
25/12:00am 15.9 NNW 6 7 1014.6 - 0.0 - - - - - - -
 
Date/Time
WST
Temp

°C
Wind Pressure Rain
since 9am
mm
Weather Cloud Vis
km
Sea
Height
m
Swell
Dir
 
Speed
knots
Gust
knots
hPa Trend Height
m
Period
s
Dir
24/11:30pm 15.3 NNW 6 7 1014.6 - 0.0 - - - - - - -
24/11:00pm 15.2 NW 7 8 1015.0 - 0.0 - - - - - - -
24/10:30pm 15.3 NW 6 7 1015.1 - 0.0 - - - - - - -
24/10:00pm 15.4 WNW 5 6 1015.3 - 0.0 - - - - - - -
24/09:30pm 15.6 W 7 8 1015.8 - 0.0 - - - - - - -
24/09:00pm 15.7 W 5 6 1015.8 - 0.0 - - - - - - -
24/08:30pm 15.8 WSW 5 6 1015.6 - 0.0 - - - - - - -
24/08:00pm 16.0 SW 3 4 1015.4 - 0.0 - - - - - - -
24/07:30pm 16.2 SW 5 6 1015.5 - 0.0 - - - - - - -
24/07:00pm 16.6 SW 4 5 1015.3 - 0.0 - - - - - - -
24/06:30pm 17.4 W 6 8 1015.3 - 0.0 - - - - - - -
24/06:00pm 18.0 WNW 5 7 1015.3 - 0.0 - - - - - - -
24/05:30pm 18.2 NNW 7 8 1015.4 - 0.0 - - - - - - -
24/05:00pm 18.4 N 6 9 1015.3 - 0.0 - - - - - - -
24/04:30pm 19.2 NNW 7 9 1015.6 - 0.0 - - - - - - -
24/04:00pm 20.3 NNW 8 11 1015.6 - 0.0 - - - - - - -
24/03:30pm 20.3 N 9 12 1015.6 - 0.0 - - - - - - -
24/03:00pm 20.4 N 8 10 1015.6 - 0.0 - - - - - - -
24/02:30pm 19.9 N 8 11 1015.9 - 0.0 - - - - - - -
24/02:00pm 20.1 N 8 10 1016.1 - 0.0 - - - - - - -
24/01:30pm 20.1 N 8 11 1016.3 - 0.0 - - - - - - -
24/01:00pm 20.2 NNE 9 11 1016.7 - 0.0 - - - - - - -
24/12:30pm 20.0 NNE 8 11 1017.0 - 0.0 - - - - - - -
24/12:00pm 19.6 NNE 9 12 1017.1 - 0.0 - - - - - - -
24/11:30am 19.7 NE 10 13 1017.3 - 0.0 - - - - - - -
24/11:00am 19.4 NE 11 14 1017.6 - 0.0 - - - - - - -
24/10:30am 19.2 NE 12 15 1017.9 - 0.0 - - - - - - -
24/10:00am 18.2 ENE 11 14 1018.2 - 0.0 - - - - - - -
24/09:30am 17.5 NE 12 15 1017.9 - 0.0 - - - - - - -
24/09:00am 16.4 ENE 11 14 1017.9 - 0.6 - - - - - - -
24/08:30am 15.9 ENE 10 14 1018.0 - 0.6 - - - - - - -
24/08:00am 15.1 E 11 14 1018.1 - 0.6 - - - - - - -
24/07:30am 14.9 E 11 15 1018.2 - 0.6 - - - - - - -
24/07:00am 13.7 ESE 8 9 1017.8 - 0.6 - - - - - - -
24/06:30am 13.0 ESE 9 10 1017.6 - 0.6 - - - - - - -
24/06:00am 12.5 ESE 9 11 1017.7 - 0.6 - - - - - - -
24/05:30am 12.3 SE 9 11 1017.4 - 0.6 - - - - - - -
24/05:00am 12.3 SE 9 11 1017.2 - 0.6 - - - - - - -
24/04:30am 12.3 SE 9 10 1017.3 - 0.4 - - - - - - -
24/04:00am 12.4 SE 9 11 1017.1 - 0.4 - - - - - - -
24/03:30am 12.6 SE 9 11 1017.5 - 0.4 - - - - - - -
24/03:00am 12.5 SE 9 11 1017.7 - 0.4 - - - - - - -
24/02:30am 12.6 SE 10 12 1017.8 - 0.4 - - - - - - -
24/02:00am 12.6 SE 10 12 1017.8 - 0.4 - - - - - - -
24/01:30am 12.6 SE 10 12 1017.9 - 0.4 - - - - - - -
24/01:00am 12.6 SSE 10 12 1018.1 - 0.4 - - - - - - -
24/12:30am 12.8 SSE 11 14 1018.0 - 0.4 - - - - - - -
24/12:00am 12.8 SSE 11 14 1018.2 - 0.4 - - - - - - -
 
Date/Time
WST
Temp

°C
Wind Pressure Rain
since 9am
mm
Weather Cloud Vis
km
Sea
Height
m
Swell
Dir
 
Speed
knots
Gust
knots
hPa Trend Height
m
Period
s
Dir
23/11:30pm 12.9 SSE 11 14 1018.2 - 0.4 - - - - - - -
23/11:00pm 12.8 SSE 11 14 1018.1 - 0.4 - - - - - - -
23/10:30pm 13.1 SSE 11 14 1018.2 - 0.4 - - - - - - -
23/10:00pm 13.4 S 11 13 1018.4 - 0.4 - - - - - - -
23/09:30pm 13.2 S 9 13 1018.5 - 0.4 - - - - - - -
23/09:00pm 13.6 SSE 10 14 1018.5 - 0.4 - - - - - - -
23/08:30pm 14.0 S 12 15 1018.5 - 0.4 - - - - - - -
23/08:00pm 14.5 S 11 13 1018.5 - 0.4 - - - - - - -
23/07:30pm 15.2 S 12 15 1018.0 - 0.4 - - - - - - -
23/07:00pm 15.0 S 13 16 1017.5 - 0.4 - - - - - - -
23/06:30pm 15.9 SSW 15 21 1017.1 - 0.4 - - - - - - -
23/06:00pm 16.0 SSW 13 19 1016.9 - 0.4 - - - - - - -
23/05:30pm 15.8 SSW 11 15 1016.8 - 0.4 - - - - - - -
23/05:00pm 16.6 SSW 13 19 1016.7 - 0.4 - - - - - - -
23/04:30pm 16.9 SW 13 17 1016.6 - 0.4 - - - - - - -
23/04:00pm 19.9 SSW 12 17 1016.4 - 0.4 - - - - - - -
23/03:30pm 20.0 SSW 14 18 1016.2 - 0.4 - - - - - - -
23/03:00pm 20.2 SSW 14 19 1016.1 - 0.4 - - - - - - -
23/02:30pm 20.6 SSW 15 21 1016.1 - 0.4 - - - - - - -
23/02:00pm 20.0 SSW 15 22 1015.9 - 0.4 - - - - - - -
23/01:30pm 20.0 SSW 17 24 1015.9 - 0.4 - - - - - - -
23/01:00pm 20.2 SSW 16 22 1015.8 - 0.4 - - - - - - -
23/12:30pm 19.9 SSW 17 22 1015.6 - 0.4 - - - - - - -
23/12:00pm 19.7 SSW 17 22 1015.5 - 0.4 - - - - - - -
23/11:30am 19.7 SSW 18 27 1015.3 - 0.4 - - - - - - -
23/11:00am 19.1 SW 17 23 1015.2 - 0.4 - - - - - - -
23/10:30am 18.2 SW 17 23 1015.1 - 0.4 - - - - - - -
23/10:00am 16.5 SW 17 23 1014.8 - 0.4 - - - - - - -
23/09:30am 16.3 SW 16 20 1014.5 - 0.4 - - - - - - -
23/09:00am 16.2 WSW 19 27 1014.4 - 1.0 Rain - - - - - -
23/08:58am 17.2 SW 17 27 1014.3 - 0.2 - - - - - - -
23/08:30am 18.2 SW 18 25 1013.8 - 0.0 - - - - - - -
23/08:04am 17.6 SW 16 27 1013.5 - 0.0 - - - - - - -
23/08:00am 17.1 SW 15 22 1013.5 - 0.0 - - - - - - -
23/07:43am 16.4 SW 17 27 1013.2 - 0.0 - - - - - - -
23/07:30am 16.3 SW 17 23 1013.1 - 0.0 - - - - - - -
23/07:00am 16.2 WSW 18 23 1012.8 - 0.0 - - - - - - -
23/06:30am 16.4 WSW 19 24 1012.5 - 0.0 - - - - - - -
23/06:00am 16.4 WSW 17 25 1012.2 - 0.0 - - - - - - -
23/05:30am 16.1 WSW 18 24 1011.8 - 0.0 - - - - - - -
23/05:00am 16.4 W 19 24 1011.7 - 0.0 - - - - - - -
23/04:30am 16.2 W 17 23 1011.7 - 0.0 - - - - - - -
23/04:00am 15.9 W 16 21 1011.6 - 0.0 - - - - - - -
23/03:30am 15.6 W 13 19 1011.2 - 0.0 - - - - - - -
23/03:00am 15.7 W 14 17 1011.4 - 0.0 - - - - - - -
23/02:30am 15.8 W 13 18 1011.5 - 0.0 - - - - - - -
23/02:00am 15.8 WNW 13 16 1011.8 - 0.0 - - - - - - -
23/01:30am 16.2 W 13 17 1012.0 - 0.0 - - - - - - -
23/01:00am 16.0 W 15 19 1012.2 - 0.0 - - - - - - -
23/12:30am 15.5 W 11 14 1011.9 - 0.0 - - - - - - -
23/12:00am 16.0 W 12 17 1012.2 - 0.0 - - - - - - -
 
Date/Time
WST
Temp

°C
Wind Pressure Rain
since 9am
mm
Weather Cloud Vis
km
Sea
Height
m
Swell
Dir
 
Speed
knots
Gust
knots
hPa Trend Height
m
Period
s
Dir
22/11:30pm 16.2 W 15 19 1012.7 - 0.0 - - - - - - -
22/11:00pm 16.3 W 16 22 1013.0 - 0.0 - - - - - - -
22/10:30pm 16.4 W 19 23 1013.1 - 0.0 - - - - - - -
22/10:00pm 16.5 W 18 24 1013.1 - 0.0 - - - - - - -
22/09:30pm 16.6 W 18 23 1012.8 - 0.0 - - - - - - -
22/09:00pm 16.9 W 18 22 1013.0 - 0.0 - - - - - - -
22/08:30pm 16.8 W 16 21 1012.8 - 0.0 - - - - - - -
22/08:00pm 16.7 W 15 19 1012.1 - 0.0 - - - - - - -
22/07:30pm 17.0 W 17 22 1011.9 - 0.0 - - - - - - -
22/07:00pm 17.5 W 20 25 1011.6 - 0.0 - - - - - - -
22/06:30pm 18.3 W 18 23 1011.3 - 0.0 - - - - - - -
22/06:00pm 18.6 W 20 25 1010.7 - 0.0 - - - - - - -
22/05:30pm 19.4 W 19 26 1010.1 - 0.0 - - - - - - -
22/05:00pm 19.7 W 18 22 1009.9 - 0.0 - - - - - - -
22/04:30pm 19.8 W 20 24 1009.7 - 0.0 - - - - - - -
22/04:00pm 22.4 W 16 21 1009.6 - 0.0 - - - - - - -
22/03:30pm 23.2 W 11 15 1010.2 - 0.0 - - - - - - -
22/03:00pm 23.5 NW 11 15 1010.6 - 0.0 - - - - - - -
22/02:30pm 23.1 NW 12 15 1011.1 - 0.0 - - - - - - -
22/02:00pm 23.9 NNW 9 12 1011.2 - 0.0 - - - - - - -
22/01:30pm 24.4 NNE 10 12 1011.3 - 0.0 - - - - - - -
22/01:00pm 24.1 NE 13 16 1011.3 - 0.0 - - - - - - -
22/12:30pm 24.7 ENE 16 19 1011.5 - 0.0 - - - - - - -
22/12:00pm 24.0 ENE 16 21 1011.6 - 0.0 - - - - - - -

Other Formats:

Comma delimited format used in spreadsheet applications
http://www.bom.gov.au/fwo/IDW60701/IDW60701.94600.axf

JavaScript Object Notation format (JSON) in row-major order
http://www.bom.gov.au/fwo/IDW60701/IDW60701.94600.json